Kezdőlap
METAR-TAF:

METAR-TAF

Repülőterek :

Stuttgarti repülőtér

Stuttgart, Németország

földrajzi szélesség: 48-41N, földrajzi hosszúság: 009-13E, magasság: 396 m

Jelenlegi meteorológiai megfigyelések

A jelentés 43 perccel ezelõtt készült, 23:50 UTC
Különbözõ irányokból fújó szél 1 kt
Hőmérséklet 5°C
Páratartalom 65%
Légköri nyomás 1024 hPa
Látótávolság 10 km, vagy több
felhőtlen 1500 m magasságban, és nincs gomolyfelhõ

METAR: EDDS 042350Z VRB01KT CAVOK 05/M01 Q1024

Idő: 02:33 (00:33 UTC)

Előrejelzés

A jelentés 58 perccel ezelõtt készült, 23:35 UTC
Az előrejelzés 05-én 00 óra UTC és 05-én 24 óra UTC között érvényes
Különbözõ irányokból fújó szél 3 kt
Látótávolság 10 km, vagy több
felhőtlen 1500 m magasságban, és nincs gomolyfelhõ
05-én 08 óra UTC és 05-én 17 óra UTC között ideiglenes
Keleti szél 7 kt

TAF: EDDS 042335Z 0500/0524 VRB03KT CAVOK TEMPO 0508/0517 09007KT

Meteorológiai megfigyelések és előrejelzések több, mint 4000 repülőtéren (METAR és TAF jelentéseket).

A térképen piros és sárga pontok jelzik az elérhető meteorológiai állomásokat.

Mozgassa az egeret a pont fölött, hogy megjelenjen az állomás neve.

Azután kattintson az időjárási megfigyelések és előrejelzések megtekintéséhez.

A térkép megváltoztatása: kattintson a fekete keresztel jelölt zöld gombra ráközelítéshez, a vonallal jelölt zöld gombra távolításhoz, vagy a zöld nyilakra a szomszédos térképek eléréséhez.


METAR-TAF: